createdAt,value
2019-06-09T00:01:35.804Z,2.50
2019-06-09T00:03:28.398Z,2.00
2019-06-09T00:05:33.146Z,2.87
2019-06-09T00:07:37.630Z,2.20
2019-06-09T00:09:42.397Z,2.30
2019-06-09T00:11:47.721Z,2.20
2019-06-09T00:13:52.610Z,2.20
2019-06-09T00:15:57.849Z,2.50
2019-06-09T00:18:03.666Z,2.42
2019-06-09T00:20:11.817Z,2.80
2019-06-09T00:22:14.962Z,2.42
2019-06-09T00:24:19.810Z,2.98
2019-06-09T00:26:27.040Z,2.92
2019-06-09T00:28:31.016Z,2.15
2019-06-09T00:30:37.940Z,2.50
2019-06-09T00:32:42.714Z,2.47
2019-06-09T00:34:47.938Z,3.10
2019-06-09T00:36:52.898Z,2.67
2019-06-09T00:38:57.871Z,2.75
2019-06-09T00:41:02.871Z,2.37
2019-06-09T00:43:09.677Z,2.10
2019-06-09T00:45:15.926Z,2.10
2019-06-09T00:47:20.707Z,3.17
2019-06-09T00:49:27.937Z,2.77
2019-06-09T00:51:31.939Z,2.25
2019-06-09T00:53:37.647Z,2.83
2019-06-09T00:55:42.422Z,2.80
2019-06-09T00:57:48.250Z,2.92
2019-06-09T00:59:53.239Z,2.55
2019-06-09T01:02:03.898Z,2.02
2019-06-09T01:04:06.180Z,2.77
2019-06-09T01:06:11.581Z,2.60
2019-06-09T01:08:19.195Z,2.45
2019-06-09T01:10:23.821Z,2.30
2019-06-09T01:12:28.669Z,2.40
2019-06-09T01:14:33.439Z,2.58
2019-06-09T01:16:38.183Z,2.55
2019-06-09T01:18:42.933Z,2.42
2019-06-09T01:20:48.354Z,2.37
2019-06-09T01:22:53.088Z,3.27
2019-06-09T01:24:58.215Z,2.77
2019-06-09T01:27:02.973Z,2.40
2019-06-09T01:29:07.773Z,2.55
2019-06-09T01:31:13.786Z,2.50
2019-06-09T01:33:20.269Z,2.98
2019-06-09T01:35:27.627Z,2.08
2019-06-09T01:37:31.646Z,2.12
2019-06-09T01:39:38.409Z,2.83
2019-06-09T01:41:42.878Z,2.40
2019-06-09T01:43:47.960Z,2.45
2019-06-09T01:45:52.775Z,2.65
2019-06-09T01:47:58.601Z,1.80
2019-06-09T01:50:03.634Z,2.70
2019-06-09T01:52:08.398Z,2.70
2019-06-09T01:54:14.110Z,2.70
2019-06-09T01:56:20.213Z,2.90
2019-06-09T01:58:25.082Z,2.83
2019-06-09T02:00:30.502Z,2.20
2019-06-09T02:02:45.753Z,2.55
2019-06-09T02:04:41.784Z,2.55
2019-06-09T02:06:47.893Z,2.60
2019-06-09T02:08:52.867Z,2.22
2019-06-09T02:10:57.965Z,2.30
2019-06-09T02:13:02.789Z,3.20
2019-06-09T02:15:07.670Z,2.60
2019-06-09T02:17:13.016Z,2.67
2019-06-09T02:19:19.785Z,2.80
2019-06-09T02:21:24.314Z,2.10
2019-06-09T02:23:29.071Z,2.90
2019-06-09T02:25:33.834Z,2.42
2019-06-09T02:27:38.579Z,2.65
2019-06-09T02:29:43.342Z,2.45
2019-06-09T02:31:49.537Z,2.50
2019-06-09T02:33:55.472Z,2.55
2019-06-09T02:36:11.213Z,2.35
2019-06-09T02:38:07.533Z,2.12
2019-06-09T02:40:13.618Z,2.45
2019-06-09T02:42:22.038Z,2.55
2019-06-09T02:44:30.586Z,2.02
2019-06-09T02:46:44.866Z,2.27
2019-06-09T02:48:52.276Z,2.25
2019-06-09T02:50:56.102Z,1.95
2019-06-09T02:53:02.577Z,2.30
2019-06-09T02:55:07.287Z,2.20
2019-06-09T02:57:13.732Z,2.67
2019-06-09T02:59:22.249Z,1.98
2019-06-09T03:01:29.577Z,2.98
2019-06-09T03:03:49.652Z,2.65
2019-06-09T03:05:40.701Z,2.50
2019-06-09T03:07:45.919Z,2.15
2019-06-09T03:09:52.046Z,2.47
2019-06-09T03:11:57.002Z,2.65
2019-06-09T03:14:02.933Z,1.98
2019-06-09T03:16:08.011Z,2.35
2019-06-09T03:18:12.811Z,2.42
2019-06-09T03:20:17.549Z,2.65
2019-06-09T03:22:27.152Z,3.05
2019-06-09T03:24:33.627Z,2.35
2019-06-09T03:26:40.272Z,2.70
2019-06-09T03:28:44.240Z,2.20
2019-06-09T03:31:04.769Z,2.20
2019-06-09T03:37:46.545Z,3.08
2019-06-09T03:39:14.018Z,2.52
2019-06-09T03:41:18.834Z,2.35
2019-06-09T03:43:29.044Z,3.58
2019-06-09T03:45:37.020Z,2.70
2019-06-09T03:47:42.710Z,2.42
2019-06-09T03:49:45.933Z,3.50
2019-06-09T03:51:52.131Z,2.90
2019-06-09T03:53:56.039Z,3.02
2019-06-09T03:56:02.947Z,2.42
2019-06-09T03:58:11.897Z,2.52
2019-06-09T04:00:19.571Z,3.00
2019-06-09T04:02:24.680Z,2.52
2019-06-09T04:04:35.444Z,3.42
2019-06-09T04:06:48.687Z,3.30
2019-06-09T04:08:45.744Z,3.42
2019-06-09T04:10:48.087Z,3.10
2019-06-09T04:12:52.905Z,3.35
2019-06-09T04:14:57.671Z,3.80
2019-06-09T04:17:06.600Z,3.15
2019-06-09T04:19:12.228Z,3.00
2019-06-09T04:21:15.371Z,2.55
2019-06-09T04:23:23.729Z,3.00
2019-06-09T04:25:29.099Z,3.58
2019-06-09T04:27:42.369Z,2.58
2019-06-09T04:29:43.337Z,2.67
2019-06-09T04:31:45.980Z,2.67
2019-06-09T04:33:52.764Z,2.47
2019-06-09T04:36:20.244Z,2.80
2019-06-09T04:38:03.704Z,2.75
2019-06-09T04:40:08.343Z,2.17
2019-06-09T04:42:13.193Z,2.35
2019-06-09T04:44:17.959Z,2.17
2019-06-09T04:46:22.532Z,2.53
2019-06-09T04:48:27.944Z,2.37
2019-06-09T04:50:38.875Z,2.27
2019-06-09T04:52:43.203Z,2.20
2019-06-09T04:54:46.190Z,2.30
2019-06-09T04:56:53.119Z,2.33
2019-06-09T04:58:59.210Z,2.30
2019-06-09T05:01:03.627Z,2.10
2019-06-09T05:03:08.207Z,2.70
2019-06-09T05:05:12.820Z,2.57
2019-06-09T05:07:26.060Z,2.47
2019-06-09T05:09:23.489Z,1.80
2019-06-09T05:11:31.090Z,4.23
2019-06-09T05:13:39.620Z,2.30
2019-06-09T05:15:48.969Z,2.20
2019-06-09T05:17:48.636Z,2.67
2019-06-09T05:20:01.771Z,2.30
2019-06-09T05:22:04.646Z,1.87
2019-06-09T05:24:12.269Z,2.20
2019-06-09T05:26:15.868Z,2.10
2019-06-09T05:28:21.910Z,2.27
2019-06-09T05:30:26.635Z,1.70
2019-06-09T05:32:36.983Z,2.77
2019-06-09T05:34:40.435Z,2.20
2019-06-09T05:37:07.927Z,3.20
2019-06-09T05:38:55.727Z,1.93
2019-06-09T05:41:02.313Z,2.47
2019-06-09T05:43:07.762Z,2.30
2019-06-09T05:45:12.710Z,2.00
2019-06-09T05:47:17.218Z,2.53
2019-06-09T05:49:21.880Z,1.73
2019-06-09T05:51:26.367Z,2.23
2019-06-09T05:53:33.510Z,2.27
2019-06-09T05:55:38.258Z,2.60
2019-06-09T05:57:43.294Z,1.80
2019-06-09T05:59:47.788Z,2.13
2019-06-09T06:01:52.260Z,2.63
2019-06-09T06:03:56.758Z,2.60
2019-06-09T06:06:01.766Z,2.33
2019-06-09T06:08:06.413Z,1.70
2019-06-09T06:10:11.196Z,1.70
2019-06-09T06:12:15.867Z,1.30
2019-06-09T06:14:21.703Z,2.23
2019-06-09T06:16:26.624Z,2.20
2019-06-09T06:18:32.097Z,1.83
2019-06-09T06:20:37.330Z,2.93
2019-06-09T06:22:43.459Z,1.70
2019-06-09T06:24:48.030Z,1.80
2019-06-09T06:26:52.528Z,2.37
2019-06-09T06:28:57.038Z,1.87
2019-06-09T06:31:01.775Z,2.37
2019-06-09T06:33:06.243Z,1.77
2019-06-09T06:35:11.804Z,2.10
2019-06-09T06:37:16.507Z,2.10
2019-06-09T06:39:21.145Z,1.80
2019-06-09T06:41:25.742Z,1.80
2019-06-09T06:43:31.253Z,1.70
2019-06-09T06:45:35.861Z,1.60
2019-06-09T06:47:42.782Z,1.77
2019-06-09T06:49:47.050Z,1.40
2019-06-09T06:51:51.977Z,2.43
2019-06-09T06:53:57.144Z,1.33
2019-06-09T06:56:02.500Z,1.10
2019-06-09T06:58:07.519Z,1.30
2019-06-09T07:00:12.435Z,1.60
2019-06-09T07:02:16.975Z,1.20
2019-06-09T07:04:21.842Z,1.63
2019-06-09T07:06:26.447Z,1.57
2019-06-09T07:08:31.764Z,1.77
2019-06-09T07:10:36.494Z,1.33
2019-06-09T07:12:43.728Z,1.60
2019-06-09T07:14:48.176Z,1.73
2019-06-09T07:16:53.553Z,1.10
2019-06-09T07:18:58.277Z,1.30
2019-06-09T07:21:02.752Z,2.30
2019-06-09T07:23:07.276Z,1.43
2019-06-09T07:25:12.201Z,1.60
2019-06-09T07:27:16.721Z,1.70
2019-06-09T07:29:21.204Z,1.60
2019-06-09T07:31:25.698Z,1.50
2019-06-09T07:33:31.511Z,1.60
2019-06-09T07:35:49.018Z,1.30
2019-06-09T07:38:14.868Z,1.30
2019-06-09T07:40:01.342Z,1.40
2019-06-09T07:42:06.006Z,1.70
2019-06-09T07:44:10.933Z,1.50
2019-06-09T07:46:15.515Z,1.80
2019-06-09T07:48:21.642Z,1.30
2019-06-09T07:50:26.379Z,1.33
2019-06-09T07:52:31.724Z,1.60
2019-06-09T07:54:36.317Z,1.60
2019-06-09T07:56:42.240Z,1.30
2019-06-09T07:58:47.709Z,1.43
2019-06-09T08:00:54.577Z,1.50
2019-06-09T08:02:58.463Z,1.40
2019-06-09T08:05:02.927Z,1.80
2019-06-09T08:07:07.417Z,1.53
2019-06-09T08:09:11.903Z,1.40
2019-06-09T08:11:16.368Z,1.50
2019-06-09T08:13:21.998Z,1.27
2019-06-09T08:15:27.194Z,2.00
2019-06-09T08:17:31.670Z,1.40
2019-06-09T08:19:36.150Z,1.67
2019-06-09T08:21:40.860Z,2.33
2019-06-09T08:23:46.625Z,1.60
2019-06-09T08:25:51.847Z,1.93
2019-06-09T08:27:57.415Z,1.27
2019-06-09T08:30:09.083Z,1.47
2019-06-09T08:32:08.054Z,1.70
2019-06-09T08:34:12.563Z,1.33
2019-06-09T08:36:17.474Z,1.47
2019-06-09T08:38:25.214Z,2.23
2019-06-09T08:40:31.215Z,1.50
2019-06-09T08:42:35.842Z,1.57
2019-06-09T08:44:40.934Z,1.70
2019-06-09T08:46:45.747Z,2.30
2019-06-09T08:48:52.680Z,1.83
2019-06-09T08:50:56.494Z,1.70
2019-06-09T08:53:03.475Z,1.73
2019-06-09T08:55:08.074Z,1.97
2019-06-09T08:57:12.557Z,2.50
2019-06-09T08:59:17.632Z,1.63
2019-06-09T09:01:22.184Z,1.67
2019-06-09T09:03:26.741Z,1.60
2019-06-09T09:05:32.867Z,1.33
2019-06-09T09:07:37.370Z,1.70
2019-06-09T09:09:41.848Z,1.50
2019-06-09T09:11:46.419Z,2.00
2019-06-09T09:13:52.972Z,1.70
2019-06-09T09:15:58.261Z,1.60
2019-06-09T09:18:02.764Z,1.50
2019-06-09T09:20:07.256Z,1.87
2019-06-09T09:22:11.800Z,2.30
2019-06-09T09:24:46.939Z,2.03
2019-06-09T09:26:22.459Z,1.60
2019-06-09T09:28:26.963Z,2.07
2019-06-09T09:30:31.754Z,2.37
2019-06-09T09:32:36.310Z,1.67
2019-06-09T09:34:41.136Z,1.80
2019-06-09T09:36:46.698Z,1.80
2019-06-09T09:38:53.763Z,1.60
2019-06-09T09:41:00.517Z,2.80
2019-06-09T09:43:04.895Z,1.80
2019-06-09T09:45:10.757Z,1.83
2019-06-09T09:47:15.323Z,2.17
2019-06-09T09:49:21.808Z,2.00
2019-06-09T09:51:26.002Z,1.70
2019-06-09T09:53:32.233Z,1.93
2019-06-09T09:55:36.702Z,1.70
2019-06-09T09:57:41.228Z,1.90
2019-06-09T09:59:46.677Z,2.30
2019-06-09T10:01:53.986Z,1.93
2019-06-09T10:03:59.486Z,2.57
2019-06-09T10:06:08.001Z,2.33
2019-06-09T10:08:12.499Z,2.67
2019-06-09T10:10:17.070Z,2.67
2019-06-09T10:12:22.104Z,2.10
2019-06-09T10:14:26.610Z,2.93
2019-06-09T10:16:31.782Z,2.33
2019-06-09T10:18:36.694Z,2.80
2019-06-09T10:20:41.719Z,2.00
2019-06-09T10:22:46.314Z,2.30
2019-06-09T10:25:02.426Z,1.90
2019-06-09T10:26:58.112Z,2.37
2019-06-09T10:29:03.753Z,2.70
2019-06-09T10:31:08.287Z,3.00
2019-06-09T10:33:12.967Z,2.60
2019-06-09T10:35:17.650Z,3.10
2019-06-09T10:37:22.239Z,3.00
2019-06-09T10:39:30.097Z,2.20
2019-06-09T10:41:32.999Z,3.00
2019-06-09T10:43:37.491Z,2.60
2019-06-09T10:45:41.954Z,2.60
2019-06-09T10:47:46.456Z,2.50
2019-06-09T10:49:52.898Z,2.90
2019-06-09T10:51:57.391Z,2.60
2019-06-09T10:54:03.356Z,3.43
2019-06-09T10:56:07.942Z,2.93
2019-06-09T10:58:12.409Z,2.83
2019-06-09T11:00:27.674Z,2.43
2019-06-09T11:02:23.454Z,2.80
2019-06-09T11:04:27.942Z,2.23
2019-06-09T11:06:32.413Z,3.10
2019-06-09T11:08:36.906Z,2.80
2019-06-09T11:10:41.935Z,2.80
2019-06-09T11:12:46.647Z,2.00
2019-06-09T11:14:52.955Z,2.90
2019-06-09T11:16:58.375Z,3.07
2019-06-09T11:19:04.647Z,3.07
2019-06-09T11:21:10.611Z,2.93
2019-06-09T11:23:15.310Z,2.73
2019-06-09T11:25:21.669Z,2.30
2019-06-09T11:27:26.030Z,3.30
2019-06-09T11:29:31.211Z,2.90
2019-06-09T11:31:35.867Z,3.00
2019-06-09T11:33:41.798Z,3.70
2019-06-09T11:35:46.806Z,3.30
2019-06-09T11:37:53.459Z,2.77
2019-06-09T11:39:58.805Z,2.73
2019-06-09T11:42:05.205Z,2.97
2019-06-09T11:44:11.603Z,3.23
2019-06-09T11:46:16.030Z,2.67
2019-06-09T11:48:23.428Z,2.90
2019-06-09T11:50:27.967Z,3.33
2019-06-09T11:52:32.439Z,2.60
2019-06-09T11:54:36.933Z,2.67
2019-06-09T11:56:41.494Z,2.60
2019-06-09T11:58:46.078Z,2.90
2019-06-09T12:00:51.388Z,2.17
2019-06-09T12:02:57.387Z,4.33
2019-06-09T12:05:08.705Z,2.47
2019-06-09T12:07:13.222Z,3.60
2019-06-09T12:09:17.836Z,3.40
2019-06-09T12:11:22.306Z,2.97
2019-06-09T12:13:26.782Z,3.57
2019-06-09T12:15:31.286Z,4.20
2019-06-09T12:17:35.758Z,3.30
2019-06-09T12:19:43.684Z,2.73
2019-06-09T12:21:46.611Z,3.20
2019-06-09T12:23:51.799Z,2.60
2019-06-09T12:25:56.873Z,3.33
2019-06-09T12:28:05.489Z,2.60
2019-06-09T12:30:19.668Z,2.70
2019-06-09T12:32:14.845Z,2.43
2019-06-09T12:34:21.422Z,3.07
2019-06-09T12:36:31.307Z,2.70
2019-06-09T12:38:35.424Z,3.23
2019-06-09T12:40:41.185Z,3.23
2019-06-09T12:42:45.762Z,2.53
2019-06-09T12:44:51.569Z,3.20
2019-06-09T12:46:56.865Z,2.43
2019-06-09T12:49:03.406Z,3.00
2019-06-09T12:51:08.854Z,2.53
2019-06-09T12:53:15.357Z,2.50
2019-06-09T12:55:21.451Z,2.57
2019-06-09T12:57:26.255Z,2.77
2019-06-09T12:59:31.687Z,2.80
2019-06-09T13:01:36.331Z,3.30
2019-06-09T13:03:41.314Z,3.00
2019-06-09T13:05:46.054Z,3.13
2019-06-09T13:07:51.175Z,2.47
2019-06-09T13:09:55.686Z,2.90
2019-06-09T13:12:02.233Z,3.70
2019-06-09T13:14:07.503Z,2.90
2019-06-09T13:16:26.918Z,2.60
2019-06-09T13:18:20.709Z,2.73
2019-06-09T13:20:25.020Z,2.63
2019-06-09T13:22:31.471Z,2.83
2019-06-09T13:24:35.858Z,3.70
2019-06-09T13:26:41.141Z,2.67
2019-06-09T13:28:45.882Z,3.43
2019-06-09T13:30:51.719Z,3.10
2019-06-09T13:32:56.414Z,3.30
2019-06-09T13:35:02.922Z,3.33
2019-06-09T13:37:07.542Z,2.70
2019-06-09T13:39:13.698Z,3.00
2019-06-09T13:41:18.193Z,2.70
2019-06-09T13:43:22.690Z,2.73
2019-06-09T13:45:27.259Z,3.73
2019-06-09T13:47:31.739Z,3.50
2019-06-09T13:49:40.685Z,3.23
2019-06-09T13:51:45.366Z,2.70
2019-06-09T13:53:52.811Z,3.27
2019-06-09T13:55:56.114Z,3.87
2019-06-09T13:58:01.272Z,2.73
2019-06-09T14:00:07.827Z,3.80
2019-06-09T14:02:14.716Z,3.00
2019-06-09T14:04:18.569Z,3.20
2019-06-09T14:06:23.047Z,2.53
2019-06-09T14:08:27.521Z,3.60
2019-06-09T14:10:31.990Z,3.30
2019-06-09T14:12:36.494Z,2.60
2019-06-09T14:14:41.206Z,2.63
2019-06-09T14:16:45.750Z,3.57
2019-06-09T14:18:51.432Z,3.13
2019-06-09T14:20:56.086Z,3.80
2019-06-09T14:23:01.238Z,3.40
2019-06-09T14:25:06.063Z,2.93
2019-06-09T14:27:13.010Z,2.80
2019-06-09T14:29:17.967Z,3.40
2019-06-09T14:31:22.641Z,3.10
2019-06-09T14:33:27.179Z,3.97
2019-06-09T14:35:31.594Z,3.53
2019-06-09T14:37:36.034Z,3.00
2019-06-09T14:39:41.586Z,3.33
2019-06-09T14:41:46.046Z,3.43
2019-06-09T14:43:51.581Z,3.58
2019-06-09T14:45:56.325Z,3.40
2019-06-09T14:48:01.116Z,3.50
2019-06-09T14:50:05.815Z,3.90
2019-06-09T14:52:13.277Z,3.63
2019-06-09T14:54:17.873Z,3.50
2019-06-09T14:56:24.373Z,4.03
2019-06-09T14:58:28.693Z,2.77
2019-06-09T15:00:33.576Z,2.87
2019-06-09T15:02:38.079Z,3.90
2019-06-09T15:04:42.562Z,4.67
2019-06-09T15:06:47.071Z,3.57
2019-06-09T15:08:52.010Z,3.47
2019-06-09T15:13:43.680Z,4.50
2019-06-09T15:15:51.745Z,4.00
2019-06-09T15:18:00.737Z,3.97
2019-06-09T15:20:13.421Z,3.43
2019-06-09T15:22:22.422Z,3.20
2019-06-09T15:24:28.254Z,3.23
2019-06-09T15:26:34.630Z,3.67
2019-06-09T15:28:41.963Z,3.73
2019-06-09T15:31:12.095Z,3.27
2019-06-09T15:33:20.311Z,3.70
2019-06-09T15:35:26.495Z,3.90
2019-06-09T15:37:32.925Z,3.73
2019-06-09T15:39:41.066Z,3.87
2019-06-09T15:41:48.843Z,3.67
2019-06-09T15:43:55.147Z,3.70
2019-06-09T15:46:01.793Z,4.40
2019-06-09T15:48:08.261Z,3.80
2019-06-09T15:50:16.596Z,4.00
2019-06-09T15:52:25.514Z,3.33
2019-06-09T15:54:35.180Z,5.23
2019-06-09T15:56:41.680Z,3.40
2019-06-09T15:58:50.733Z,3.30
2019-06-09T16:00:57.380Z,3.90
2019-06-09T16:03:05.013Z,4.07
2019-06-09T16:05:11.712Z,3.87
2019-06-09T16:07:21.005Z,4.30
2019-06-09T16:09:26.635Z,3.80
2019-06-09T16:11:33.060Z,3.20
2019-06-09T16:48:02.687Z,4.03
2019-06-09T16:50:12.436Z,4.60
2019-06-09T16:52:22.313Z,4.37
2019-06-09T16:54:28.735Z,4.00
2019-06-09T16:56:36.120Z,4.17
2019-06-09T16:58:44.271Z,4.30
2019-06-09T17:00:51.166Z,4.30
2019-06-09T17:02:57.899Z,4.93
2019-06-09T17:05:05.013Z,4.30
2019-06-09T17:07:31.600Z,4.03
2019-06-09T17:09:42.255Z,5.10
2019-06-09T17:11:48.622Z,4.37
2019-06-09T17:14:00.452Z,5.40
2019-06-09T17:16:03.121Z,4.90
2019-06-09T17:18:13.773Z,4.13
2019-06-09T17:20:27.547Z,4.33
2019-06-09T17:22:36.445Z,4.83
2019-06-09T17:24:41.565Z,4.40
2019-06-09T17:26:51.417Z,4.30
2019-06-09T17:28:57.376Z,6.30
2019-06-09T17:31:03.767Z,4.80
2019-06-09T17:33:12.462Z,4.10
2019-06-09T17:35:21.525Z,4.77
2019-06-09T17:37:34.156Z,4.40
2019-06-09T17:39:40.792Z,5.03
2019-06-09T17:41:51.826Z,4.30
2019-06-09T17:44:10.783Z,3.87
2019-06-09T17:46:13.037Z,4.40
2019-06-09T17:48:21.589Z,4.00
2019-06-09T17:50:35.390Z,4.07
2019-06-09T17:52:42.222Z,4.20
2019-06-09T17:54:51.708Z,5.47
2019-06-09T17:57:01.400Z,4.33
2019-06-09T17:59:11.615Z,4.27
2019-06-09T18:01:20.709Z,5.13
2019-06-09T18:03:27.369Z,4.60
2019-06-09T18:05:36.131Z,5.73
2019-06-09T18:07:43.995Z,9.40
2019-06-09T18:10:01.214Z,7.50
2019-06-09T18:12:08.452Z,6.23
2019-06-09T18:14:24.847Z,6.00
2019-06-09T18:16:22.586Z,6.00
2019-06-09T18:18:37.447Z,6.20
2019-06-09T18:20:48.139Z,5.50
2019-06-09T18:22:54.739Z,5.33
2019-06-09T18:25:02.740Z,5.87
2019-06-09T18:27:10.854Z,5.53
2019-06-09T18:29:18.673Z,5.17
2019-06-09T18:31:30.142Z,5.60
2019-06-09T18:33:39.470Z,5.50
2019-06-09T18:35:46.674Z,5.07
2019-06-09T18:37:53.187Z,5.50
2019-06-09T18:40:01.374Z,5.30
2019-06-09T18:42:07.371Z,5.90
2019-06-09T18:44:13.545Z,5.80
2019-06-09T18:46:20.620Z,5.53
2019-06-09T18:48:27.060Z,5.97
2019-06-09T18:50:33.811Z,5.17
2019-06-09T18:52:46.537Z,5.90
2019-06-09T18:55:39.320Z,5.60
2019-06-09T18:58:06.275Z,5.10
2019-06-09T19:00:34.846Z,5.80
2019-06-09T19:03:14.390Z,5.13
2019-06-09T19:05:35.787Z,6.60
2019-06-09T19:07:59.248Z,5.70
2019-06-09T19:10:14.076Z,5.60
2019-06-09T19:12:36.094Z,5.37
2019-06-09T19:15:08.210Z,6.90
2019-06-09T19:17:05.361Z,9.17
2019-06-09T19:19:12.078Z,12.43
2019-06-09T19:21:19.261Z,23.57
2019-06-09T19:23:25.631Z,32.73
2019-06-09T19:25:33.552Z,34.70
2019-06-09T19:27:43.714Z,13.97
2019-06-09T19:29:48.651Z,12.87
2019-06-09T19:31:55.162Z,7.43
2019-06-09T19:34:01.920Z,7.00
2019-06-09T19:36:08.394Z,6.37
2019-06-09T19:38:15.246Z,20.67
2019-06-09T19:40:21.619Z,9.40
2019-06-09T19:42:28.047Z,7.87
2019-06-09T19:44:35.363Z,6.53
2019-06-09T19:46:44.733Z,6.17
2019-06-09T19:48:52.273Z,6.00
2019-06-09T19:50:58.035Z,7.97
2019-06-09T19:53:11.226Z,7.57
2019-06-09T19:55:17.785Z,10.33
2019-06-09T19:57:24.488Z,10.17
2019-06-09T19:59:31.569Z,7.13
2019-06-09T20:01:43.425Z,6.37
2019-06-09T20:03:48.149Z,7.10
2019-06-09T20:05:54.759Z,5.93
2019-06-09T20:08:05.955Z,5.80
2019-06-09T20:10:15.910Z,7.47
2019-06-09T20:12:22.985Z,6.80
2019-06-09T20:14:31.457Z,7.47
2019-06-09T20:16:39.546Z,5.60
2019-06-09T20:18:46.678Z,6.90
2019-06-09T20:20:54.994Z,5.93
2019-06-09T20:23:10.864Z,6.13
2019-06-09T20:25:16.657Z,6.50
2019-06-09T20:27:23.691Z,7.27
2019-06-09T20:29:29.961Z,7.30
2019-06-09T20:31:37.229Z,7.90
2019-06-09T20:33:47.144Z,6.90
2019-06-09T20:35:55.031Z,7.07
2019-06-09T20:38:01.630Z,6.27
2019-06-09T20:40:27.644Z,6.47
2019-06-09T20:42:17.303Z,14.80
2019-06-09T20:44:24.011Z,9.00
2019-06-09T20:46:31.082Z,9.20
2019-06-09T20:48:37.422Z,8.43
2019-06-09T20:50:47.051Z,7.33
2019-06-09T20:52:52.832Z,5.87
2019-06-09T20:55:01.210Z,6.07
2019-06-09T20:57:07.367Z,7.77
2019-06-09T20:59:15.134Z,8.90
2019-06-09T21:01:21.580Z,7.97
2019-06-09T21:03:27.843Z,6.77
2019-06-09T21:05:36.118Z,7.70
2019-06-09T21:07:45.048Z,6.80
2019-06-09T21:09:56.367Z,7.13
2019-06-09T21:12:01.749Z,6.70
2019-06-09T21:14:07.490Z,6.40
2019-06-09T21:16:20.872Z,6.90
2019-06-09T21:18:22.710Z,8.37
2019-06-09T21:20:31.035Z,13.30
2019-06-09T21:22:37.373Z,9.10
2019-06-09T21:24:44.234Z,7.57
2019-06-09T21:26:53.491Z,7.07
2019-06-09T21:29:00.741Z,7.10
2019-06-09T21:31:07.822Z,6.63
2019-06-09T21:33:14.369Z,7.70
2019-06-09T21:35:21.741Z,7.10
2019-06-09T21:37:28.052Z,6.23
2019-06-09T21:39:34.423Z,7.27
2019-06-09T21:41:41.322Z,6.77
2019-06-09T21:43:47.648Z,6.00
2019-06-09T21:45:57.348Z,6.53
2019-06-09T21:48:02.631Z,7.60
2019-06-09T21:50:11.203Z,7.57
2019-06-09T21:52:16.923Z,8.00
2019-06-09T21:54:23.297Z,6.83
2019-06-09T21:56:31.575Z,7.57
2019-06-09T21:58:56.632Z,8.10
2019-06-09T22:01:04.575Z,6.87
2019-06-09T22:03:11.718Z,5.87
2019-06-09T22:05:18.523Z,6.53
2019-06-09T22:07:26.403Z,7.10
2019-06-09T22:09:32.747Z,6.90
2019-06-09T22:11:40.919Z,7.40
2019-06-09T22:13:51.635Z,7.60
2019-06-09T22:15:57.947Z,6.67
2019-06-09T22:18:04.420Z,6.33
2019-06-09T22:20:15.303Z,7.17
2019-06-09T22:22:21.616Z,6.70
2019-06-09T22:24:28.475Z,7.67
2019-06-09T22:26:34.954Z,7.50
2019-06-09T22:28:41.320Z,7.93
2019-06-09T22:30:48.969Z,8.03
2019-06-09T22:32:56.483Z,7.17
2019-06-09T22:35:04.807Z,7.10
2019-06-09T22:37:11.757Z,7.53
2019-06-09T22:39:18.314Z,7.83
2019-06-09T22:41:24.619Z,9.63
2019-06-09T22:43:31.378Z,8.10
2019-06-09T22:45:38.184Z,7.70
2019-06-09T22:47:51.862Z,7.17
2019-06-09T22:49:53.358Z,8.05
2019-06-09T22:52:02.728Z,7.35
2019-06-09T22:54:08.269Z,8.67
2019-06-09T22:56:14.874Z,7.97
2019-06-09T22:58:21.509Z,7.80
2019-06-09T23:00:28.243Z,7.10
2019-06-09T23:02:35.142Z,8.55
2019-06-09T23:04:42.385Z,9.13
2019-06-09T23:06:50.837Z,7.63
2019-06-09T23:08:57.687Z,8.23
2019-06-09T23:11:04.239Z,8.30
2019-06-09T23:13:11.532Z,8.67
2019-06-09T23:15:20.740Z,7.85
2019-06-09T23:17:31.103Z,9.38
2019-06-09T23:19:37.783Z,8.70
2019-06-09T23:21:44.070Z,8.57
2019-06-09T23:23:52.443Z,8.70
2019-06-09T23:26:00.331Z,9.10
2019-06-09T23:28:06.992Z,8.50
2019-06-09T23:30:13.741Z,7.95
2019-06-09T23:32:21.192Z,8.30
2019-06-09T23:34:28.145Z,7.87
2019-06-09T23:36:34.411Z,9.10
2019-06-09T23:38:41.048Z,8.10
2019-06-09T23:40:47.923Z,9.08
2019-06-09T23:42:54.495Z,8.00
2019-06-09T23:45:04.613Z,7.57
2019-06-09T23:47:09.073Z,8.05
2019-06-09T23:49:15.786Z,8.55
2019-06-09T23:51:22.443Z,9.58
2019-06-09T23:53:30.611Z,8.93
2019-06-09T23:55:36.991Z,9.10
2019-06-09T23:57:43.544Z,8.35
2019-06-09T23:59:51.350Z,7.80
